sensor_id;sensor_type;location;lat;lon;timestamp;P1;durP1;ratioP1;P2;durP2;ratioP2
73954;SDS011;62306;52.516;13.290;2023-05-14T00:00:48;16.25;;;9.57;;
73954;SDS011;62306;52.516;13.290;2023-05-14T00:03:15;15.27;;;9.82;;
73954;SDS011;62306;52.516;13.290;2023-05-14T00:05:44;14.10;;;9.82;;
73954;SDS011;62306;52.516;13.290;2023-05-14T00:08:11;16.02;;;10.57;;
73954;SDS011;62306;52.516;13.290;2023-05-14T00:10:37;18.92;;;10.80;;
73954;SDS011;62306;52.516;13.290;2023-05-14T00:13:04;18.83;;;10.70;;
73954;SDS011;62306;52.516;13.290;2023-05-14T00:15:31;14.98;;;10.27;;
73954;SDS011;62306;52.516;13.290;2023-05-14T00:17:58;14.50;;;9.75;;
73954;SDS011;62306;52.516;13.290;2023-05-14T00:20:25;16.98;;;10.32;;
73954;SDS011;62306;52.516;13.290;2023-05-14T00:22:53;16.42;;;11.00;;
73954;SDS011;62306;52.516;13.290;2023-05-14T00:25:20;18.30;;;11.50;;
73954;SDS011;62306;52.516;13.290;2023-05-14T00:27:47;22.02;;;12.23;;
73954;SDS011;62306;52.516;13.290;2023-05-14T00:30:14;24.90;;;12.70;;
73954;SDS011;62306;52.516;13.290;2023-05-14T00:32:41;24.13;;;12.65;;
73954;SDS011;62306;52.516;13.290;2023-05-14T00:35:08;19.48;;;11.95;;
73954;SDS011;62306;52.516;13.290;2023-05-14T00:37:35;20.70;;;11.77;;
73954;SDS011;62306;52.516;13.290;2023-05-14T00:40:04;23.20;;;12.38;;
73954;SDS011;62306;52.516;13.290;2023-05-14T00:42:32;23.20;;;12.27;;
73954;SDS011;62306;52.516;13.290;2023-05-14T00:44:59;16.80;;;11.68;;
73954;SDS011;62306;52.516;13.290;2023-05-14T00:47:26;19.00;;;11.77;;
73954;SDS011;62306;52.516;13.290;2023-05-14T00:49:53;17.42;;;11.57;;
73954;SDS011;62306;52.516;13.290;2023-05-14T00:52:20;26.42;;;16.95;;
73954;SDS011;62306;52.516;13.290;2023-05-14T00:54:47;20.83;;;13.38;;
73954;SDS011;62306;52.516;13.290;2023-05-14T00:57:16;23.38;;;12.02;;
73954;SDS011;62306;52.516;13.290;2023-05-14T00:59:43;16.90;;;11.35;;
73954;SDS011;62306;52.516;13.290;2023-05-14T01:02:10;20.23;;;12.65;;
73954;SDS011;62306;52.516;13.290;2023-05-14T01:04:37;33.22;;;14.90;;
73954;SDS011;62306;52.516;13.290;2023-05-14T01:07:08;18.13;;;12.38;;
73954;SDS011;62306;52.516;13.290;2023-05-14T01:09:51;18.17;;;11.57;;
73954;SDS011;62306;52.516;13.290;2023-05-14T01:12:24;15.18;;;11.60;;
73954;SDS011;62306;52.516;13.290;2023-05-14T01:15:01;13.73;;;11.23;;
73954;SDS011;62306;52.516;13.290;2023-05-14T01:17:38;20.27;;;12.25;;
73954;SDS011;62306;52.516;13.290;2023-05-14T01:20:08;15.65;;;11.55;;
73954;SDS011;62306;52.516;13.290;2023-05-14T01:22:37;17.77;;;11.50;;
73954;SDS011;62306;52.516;13.290;2023-05-14T01:25:05;17.80;;;11.98;;
73954;SDS011;62306;52.516;13.290;2023-05-14T01:27:34;23.90;;;12.20;;
73954;SDS011;62306;52.516;13.290;2023-05-14T01:30:08;17.10;;;11.48;;
73954;SDS011;62306;52.516;13.290;2023-05-14T01:32:39;18.55;;;11.80;;
73954;SDS011;62306;52.516;13.290;2023-05-14T01:35:08;18.40;;;11.52;;
73954;SDS011;62306;52.516;13.290;2023-05-14T01:37:35;18.27;;;12.07;;
73954;SDS011;62306;52.516;13.290;2023-05-14T01:40:06;14.35;;;11.30;;
73954;SDS011;62306;52.516;13.290;2023-05-14T01:42:34;17.55;;;11.30;;
73954;SDS011;62306;52.516;13.290;2023-05-14T01:45:02;17.48;;;10.88;;
73954;SDS011;62306;52.516;13.290;2023-05-14T01:47:30;15.98;;;11.40;;
73954;SDS011;62306;52.516;13.290;2023-05-14T01:49:57;15.52;;;11.88;;
73954;SDS011;62306;52.516;13.290;2023-05-14T01:52:24;18.23;;;11.43;;
73954;SDS011;62306;52.516;13.290;2023-05-14T01:54:52;20.15;;;11.50;;
73954;SDS011;62306;52.516;13.290;2023-05-14T01:57:19;19.75;;;11.07;;
73954;SDS011;62306;52.516;13.290;2023-05-14T01:59:46;15.50;;;11.05;;
73954;SDS011;62306;52.516;13.290;2023-05-14T02:02:13;17.50;;;11.32;;
73954;SDS011;62306;52.516;13.290;2023-05-14T02:04:48;16.60;;;11.48;;
73954;SDS011;62306;52.516;13.290;2023-05-14T02:07:18;20.92;;;11.25;;
73954;SDS011;62306;52.516;13.290;2023-05-14T02:09:46;17.10;;;10.60;;
73954;SDS011;62306;52.516;13.290;2023-05-14T02:12:17;16.23;;;11.93;;
73954;SDS011;62306;52.516;13.290;2023-05-14T02:14:44;19.85;;;12.77;;
73954;SDS011;62306;52.516;13.290;2023-05-14T02:17:12;18.58;;;12.10;;
73954;SDS011;62306;52.516;13.290;2023-05-14T02:19:41;17.33;;;12.48;;
73954;SDS011;62306;52.516;13.290;2023-05-14T02:22:09;20.63;;;11.20;;
73954;SDS011;62306;52.516;13.290;2023-05-14T02:24:37;16.83;;;11.38;;
73954;SDS011;62306;52.516;13.290;2023-05-14T02:27:05;16.10;;;11.27;;
73954;SDS011;62306;52.516;13.290;2023-05-14T02:29:40;19.52;;;11.15;;
73954;SDS011;62306;52.516;13.290;2023-05-14T02:32:27;18.77;;;11.82;;
73954;SDS011;62306;52.516;13.290;2023-05-14T02:35:01;21.67;;;12.70;;
73954;SDS011;62306;52.516;13.290;2023-05-14T02:37:31;15.02;;;11.45;;
73954;SDS011;62306;52.516;13.290;2023-05-14T02:40:00;17.92;;;12.25;;
73954;SDS011;62306;52.516;13.290;2023-05-14T02:42:28;16.48;;;11.77;;
73954;SDS011;62306;52.516;13.290;2023-05-14T02:45:12;20.48;;;11.93;;
73954;SDS011;62306;52.516;13.290;2023-05-14T02:47:46;21.65;;;11.95;;
73954;SDS011;62306;52.516;13.290;2023-05-14T02:50:20;19.55;;;11.25;;
73954;SDS011;62306;52.516;13.290;2023-05-14T02:52:50;16.55;;;12.07;;
73954;SDS011;62306;52.516;13.290;2023-05-14T02:55:18;14.80;;;10.93;;
73954;SDS011;62306;52.516;13.290;2023-05-14T02:57:47;20.27;;;11.75;;
73954;SDS011;62306;52.516;13.290;2023-05-14T03:00:20;16.02;;;11.82;;
73954;SDS011;62306;52.516;13.290;2023-05-14T03:02:51;16.77;;;11.15;;
73954;SDS011;62306;52.516;13.290;2023-05-14T03:05:31;22.23;;;11.43;;
73954;SDS011;62306;52.516;13.290;2023-05-14T03:08:02;16.25;;;11.15;;
73954;SDS011;62306;52.516;13.290;2023-05-14T03:10:40;15.20;;;11.60;;
73954;SDS011;62306;52.516;13.290;2023-05-14T03:13:07;17.65;;;10.80;;
73954;SDS011;62306;52.516;13.290;2023-05-14T03:15:37;14.98;;;11.10;;
73954;SDS011;62306;52.516;13.290;2023-05-14T03:18:06;12.30;;;10.13;;
73954;SDS011;62306;52.516;13.290;2023-05-14T03:20:37;25.13;;;11.32;;
73954;SDS011;62306;52.516;13.290;2023-05-14T03:23:09;15.68;;;10.85;;
73954;SDS011;62306;52.516;13.290;2023-05-14T03:25:45;17.23;;;10.13;;
73954;SDS011;62306;52.516;13.290;2023-05-14T03:28:16;15.73;;;9.90;;
73954;SDS011;62306;52.516;13.290;2023-05-14T03:30:45;22.13;;;11.02;;
73954;SDS011;62306;52.516;13.290;2023-05-14T03:33:12;16.45;;;11.23;;
73954;SDS011;62306;52.516;13.290;2023-05-14T03:35:39;16.23;;;11.25;;
73954;SDS011;62306;52.516;13.290;2023-05-14T03:38:06;15.13;;;10.07;;
73954;SDS011;62306;52.516;13.290;2023-05-14T03:40:33;14.10;;;10.07;;
73954;SDS011;62306;52.516;13.290;2023-05-14T03:43:00;14.95;;;9.88;;
73954;SDS011;62306;52.516;13.290;2023-05-14T03:45:27;14.70;;;9.95;;
73954;SDS011;62306;52.516;13.290;2023-05-14T03:47:55;15.63;;;9.50;;
73954;SDS011;62306;52.516;13.290;2023-05-14T03:50:22;17.38;;;9.90;;
73954;SDS011;62306;52.516;13.290;2023-05-14T03:52:50;17.92;;;10.70;;
73954;SDS011;62306;52.516;13.290;2023-05-14T03:55:17;18.08;;;10.32;;
73954;SDS011;62306;52.516;13.290;2023-05-14T03:57:44;12.85;;;9.05;;
73954;SDS011;62306;52.516;13.290;2023-05-14T04:00:11;16.88;;;10.73;;
73954;SDS011;62306;52.516;13.290;2023-05-14T04:02:39;13.63;;;8.57;;
73954;SDS011;62306;52.516;13.290;2023-05-14T04:05:07;13.35;;;8.23;;
73954;SDS011;62306;52.516;13.290;2023-05-14T04:07:34;13.38;;;7.50;;
73954;SDS011;62306;52.516;13.290;2023-05-14T04:10:01;12.40;;;6.90;;
73954;SDS011;62306;52.516;13.290;2023-05-14T04:12:28;11.65;;;6.20;;
73954;SDS011;62306;52.516;13.290;2023-05-14T04:14:55;11.57;;;6.55;;
73954;SDS011;62306;52.516;13.290;2023-05-14T04:17:22;11.77;;;6.65;;
73954;SDS011;62306;52.516;13.290;2023-05-14T04:19:49;9.38;;;6.38;;
73954;SDS011;62306;52.516;13.290;2023-05-14T04:22:18;11.52;;;6.60;;
73954;SDS011;62306;52.516;13.290;2023-05-14T04:24:44;7.63;;;6.60;;
73954;SDS011;62306;52.516;13.290;2023-05-14T04:27:13;10.57;;;7.03;;
73954;SDS011;62306;52.516;13.290;2023-05-14T04:29:39;18.80;;;9.75;;
73954;SDS011;62306;52.516;13.290;2023-05-14T04:32:06;12.32;;;6.90;;
73954;SDS011;62306;52.516;13.290;2023-05-14T04:34:33;14.73;;;6.68;;
73954;SDS011;62306;52.516;13.290;2023-05-14T04:37:00;13.45;;;6.15;;
73954;SDS011;62306;52.516;13.290;2023-05-14T04:39:29;16.95;;;6.15;;
73954;SDS011;62306;52.516;13.290;2023-05-14T04:41:56;8.90;;;6.60;;
73954;SDS011;62306;52.516;13.290;2023-05-14T04:44:23;11.30;;;6.53;;
73954;SDS011;62306;52.516;13.290;2023-05-14T04:46:50;16.48;;;8.20;;
73954;SDS011;62306;52.516;13.290;2023-05-14T04:49:17;8.45;;;5.70;;
73954;SDS011;62306;52.516;13.290;2023-05-14T04:51:44;16.73;;;6.75;;
73954;SDS011;62306;52.516;13.290;2023-05-14T04:54:12;16.95;;;8.13;;
73954;SDS011;62306;52.516;13.290;2023-05-14T04:56:40;10.38;;;5.85;;
73954;SDS011;62306;52.516;13.290;2023-05-14T04:59:07;12.88;;;7.78;;
73954;SDS011;62306;52.516;13.290;2023-05-14T05:01:34;9.18;;;6.78;;
73954;SDS011;62306;52.516;13.290;2023-05-14T05:04:01;11.25;;;7.05;;
73954;SDS011;62306;52.516;13.290;2023-05-14T05:06:28;14.38;;;8.38;;
73954;SDS011;62306;52.516;13.290;2023-05-14T05:08:55;7.60;;;6.60;;
73954;SDS011;62306;52.516;13.290;2023-05-14T05:11:22;10.13;;;6.18;;
73954;SDS011;62306;52.516;13.290;2023-05-14T05:13:50;12.15;;;6.13;;
73954;SDS011;62306;52.516;13.290;2023-05-14T05:16:17;11.20;;;5.90;;
73954;SDS011;62306;52.516;13.290;2023-05-14T05:18:44;12.00;;;7.13;;
73954;SDS011;62306;52.516;13.290;2023-05-14T05:21:11;10.60;;;6.13;;
73954;SDS011;62306;52.516;13.290;2023-05-14T05:23:38;13.60;;;5.22;;
73954;SDS011;62306;52.516;13.290;2023-05-14T05:26:05;10.82;;;6.53;;
73954;SDS011;62306;52.516;13.290;2023-05-14T05:28:32;13.77;;;6.45;;
73954;SDS011;62306;52.516;13.290;2023-05-14T05:31:00;9.02;;;5.72;;
73954;SDS011;62306;52.516;13.290;2023-05-14T05:33:27;16.08;;;6.18;;
73954;SDS011;62306;52.516;13.290;2023-05-14T05:35:54;9.82;;;5.32;;
73954;SDS011;62306;52.516;13.290;2023-05-14T05:38:20;11.05;;;6.50;;
73954;SDS011;62306;52.516;13.290;2023-05-14T05:40:47;13.30;;;6.20;;
73954;SDS011;62306;52.516;13.290;2023-05-14T05:43:14;9.30;;;5.68;;
73954;SDS011;62306;52.516;13.290;2023-05-14T05:45:41;9.02;;;5.85;;
73954;SDS011;62306;52.516;13.290;2023-05-14T05:48:11;10.57;;;6.20;;
73954;SDS011;62306;52.516;13.290;2023-05-14T05:50:38;9.73;;;5.88;;
73954;SDS011;62306;52.516;13.290;2023-05-14T05:53:05;8.93;;;5.85;;
73954;SDS011;62306;52.516;13.290;2023-05-14T05:55:31;10.38;;;5.60;;
73954;SDS011;62306;52.516;13.290;2023-05-14T05:57:58;15.18;;;6.50;;
73954;SDS011;62306;52.516;13.290;2023-05-14T06:00:25;9.40;;;5.70;;
73954;SDS011;62306;52.516;13.290;2023-05-14T06:02:52;7.68;;;5.78;;
73954;SDS011;62306;52.516;13.290;2023-05-14T06:05:21;13.63;;;5.88;;
73954;SDS011;62306;52.516;13.290;2023-05-14T06:07:48;12.88;;;6.65;;
73954;SDS011;62306;52.516;13.290;2023-05-14T06:10:15;10.57;;;5.63;;
73954;SDS011;62306;52.516;13.290;2023-05-14T06:12:43;13.30;;;6.35;;
73954;SDS011;62306;52.516;13.290;2023-05-14T06:15:10;17.00;;;9.27;;
73954;SDS011;62306;52.516;13.290;2023-05-14T06:17:37;11.55;;;7.22;;
73954;SDS011;62306;52.516;13.290;2023-05-14T06:20:05;13.45;;;7.38;;
73954;SDS011;62306;52.516;13.290;2023-05-14T06:22:34;10.48;;;6.35;;
73954;SDS011;62306;52.516;13.290;2023-05-14T06:25:01;10.45;;;5.97;;
73954;SDS011;62306;52.516;13.290;2023-05-14T06:27:28;8.40;;;6.20;;
73954;SDS011;62306;52.516;13.290;2023-05-14T06:29:55;9.52;;;6.88;;
73954;SDS011;62306;52.516;13.290;2023-05-14T06:32:22;10.57;;;6.45;;
73954;SDS011;62306;52.516;13.290;2023-05-14T06:34:49;7.75;;;5.78;;
73954;SDS011;62306;52.516;13.290;2023-05-14T06:37:16;8.35;;;5.93;;
73954;SDS011;62306;52.516;13.290;2023-05-14T06:39:44;10.93;;;6.05;;
73954;SDS011;62306;52.516;13.290;2023-05-14T06:42:14;12.27;;;6.53;;
73954;SDS011;62306;52.516;13.290;2023-05-14T06:44:40;10.55;;;6.72;;
73954;SDS011;62306;52.516;13.290;2023-05-14T06:47:07;12.13;;;6.45;;
73954;SDS011;62306;52.516;13.290;2023-05-14T06:49:34;14.18;;;6.38;;
73954;SDS011;62306;52.516;13.290;2023-05-14T06:52:02;9.13;;;5.60;;
73954;SDS011;62306;52.516;13.290;2023-05-14T06:54:29;13.02;;;6.78;;
73954;SDS011;62306;52.516;13.290;2023-05-14T06:56:57;13.00;;;6.30;;
73954;SDS011;62306;52.516;13.290;2023-05-14T06:59:24;10.35;;;5.90;;
73954;SDS011;62306;52.516;13.290;2023-05-14T07:01:51;11.60;;;5.90;;
73954;SDS011;62306;52.516;13.290;2023-05-14T07:04:18;8.70;;;5.13;;
73954;SDS011;62306;52.516;13.290;2023-05-14T07:06:45;9.77;;;5.05;;
73954;SDS011;62306;52.516;13.290;2023-05-14T07:09:12;7.93;;;5.57;;
73954;SDS011;62306;52.516;13.290;2023-05-14T07:11:39;8.68;;;5.75;;
73954;SDS011;62306;52.516;13.290;2023-05-14T07:14:07;8.35;;;5.90;;
73954;SDS011;62306;52.516;13.290;2023-05-14T07:16:34;9.75;;;5.10;;
73954;SDS011;62306;52.516;13.290;2023-05-14T07:19:01;7.60;;;5.75;;
73954;SDS011;62306;52.516;13.290;2023-05-14T07:21:28;7.90;;;5.35;;
73954;SDS011;62306;52.516;13.290;2023-05-14T07:23:55;8.95;;;5.82;;
73954;SDS011;62306;52.516;13.290;2023-05-14T07:26:22;9.82;;;5.25;;
73954;SDS011;62306;52.516;13.290;2023-05-14T07:28:50;8.75;;;5.00;;
73954;SDS011;62306;52.516;13.290;2023-05-14T07:31:18;10.43;;;5.60;;
73954;SDS011;62306;52.516;13.290;2023-05-14T07:33:45;9.32;;;4.95;;
73954;SDS011;62306;52.516;13.290;2023-05-14T07:36:12;14.15;;;5.38;;
73954;SDS011;62306;52.516;13.290;2023-05-14T07:38:39;9.32;;;5.45;;
73954;SDS011;62306;52.516;13.290;2023-05-14T07:41:06;12.38;;;6.05;;
73954;SDS011;62306;52.516;13.290;2023-05-14T07:43:35;10.13;;;5.45;;
73954;SDS011;62306;52.516;13.290;2023-05-14T07:46:04;9.90;;;5.57;;
73954;SDS011;62306;52.516;13.290;2023-05-14T07:48:32;12.65;;;5.40;;
73954;SDS011;62306;52.516;13.290;2023-05-14T07:50:59;7.63;;;5.25;;
73954;SDS011;62306;52.516;13.290;2023-05-14T07:53:26;8.85;;;4.97;;
73954;SDS011;62306;52.516;13.290;2023-05-14T07:55:53;8.05;;;4.57;;
73954;SDS011;62306;52.516;13.290;2023-05-14T07:58:20;9.18;;;5.05;;
73954;SDS011;62306;52.516;13.290;2023-05-14T08:00:47;9.98;;;5.03;;
73954;SDS011;62306;52.516;13.290;2023-05-14T08:03:14;5.85;;;3.90;;
73954;SDS011;62306;52.516;13.290;2023-05-14T08:05:42;7.25;;;5.20;;
73954;SDS011;62306;52.516;13.290;2023-05-14T08:08:09;7.32;;;4.80;;
73954;SDS011;62306;52.516;13.290;2023-05-14T08:10:36;6.65;;;4.30;;
73954;SDS011;62306;52.516;13.290;2023-05-14T08:13:04;8.25;;;3.90;;
73954;SDS011;62306;52.516;13.290;2023-05-14T08:15:30;10.88;;;4.50;;
73954;SDS011;62306;52.516;13.290;2023-05-14T08:17:57;8.10;;;3.88;;
73954;SDS011;62306;52.516;13.290;2023-05-14T08:20:27;10.65;;;4.18;;
73954;SDS011;62306;52.516;13.290;2023-05-14T08:22:56;7.28;;;4.25;;
73954;SDS011;62306;52.516;13.290;2023-05-14T08:25:23;8.85;;;4.43;;
73954;SDS011;62306;52.516;13.290;2023-05-14T08:27:50;7.70;;;4.38;;
73954;SDS011;62306;52.516;13.290;2023-05-14T08:30:18;7.40;;;4.10;;
73954;SDS011;62306;52.516;13.290;2023-05-14T08:32:45;6.55;;;4.20;;
73954;SDS011;62306;52.516;13.290;2023-05-14T08:35:12;7.50;;;3.85;;
73954;SDS011;62306;52.516;13.290;2023-05-14T08:37:40;8.85;;;3.95;;
73954;SDS011;62306;52.516;13.290;2023-05-14T08:40:08;10.50;;;4.40;;
73954;SDS011;62306;52.516;13.290;2023-05-14T08:42:37;5.15;;;3.88;;
73954;SDS011;62306;52.516;13.290;2023-05-14T08:45:06;4.43;;;3.83;;
73954;SDS011;62306;52.516;13.290;2023-05-14T08:47:36;7.55;;;3.42;;
73954;SDS011;62306;52.516;13.290;2023-05-14T08:50:04;5.60;;;3.95;;
73954;SDS011;62306;52.516;13.290;2023-05-14T08:52:32;4.85;;;3.80;;
73954;SDS011;62306;52.516;13.290;2023-05-14T08:55:00;6.38;;;4.10;;
73954;SDS011;62306;52.516;13.290;2023-05-14T08:57:31;8.05;;;3.70;;
73954;SDS011;62306;52.516;13.290;2023-05-14T08:59:58;5.97;;;3.85;;
73954;SDS011;62306;52.516;13.290;2023-05-14T09:02:27;5.50;;;4.30;;
73954;SDS011;62306;52.516;13.290;2023-05-14T09:04:55;5.07;;;3.78;;
73954;SDS011;62306;52.516;13.290;2023-05-14T09:07:23;14.32;;;3.70;;
73954;SDS011;62306;52.516;13.290;2023-05-14T09:09:51;8.38;;;3.97;;
73954;SDS011;62306;52.516;13.290;2023-05-14T09:12:18;6.45;;;3.42;;
73954;SDS011;62306;52.516;13.290;2023-05-14T09:14:47;9.23;;;4.13;;
73954;SDS011;62306;52.516;13.290;2023-05-14T09:17:15;7.57;;;3.88;;
73954;SDS011;62306;52.516;13.290;2023-05-14T09:19:43;6.35;;;3.33;;
73954;SDS011;62306;52.516;13.290;2023-05-14T09:22:12;7.05;;;4.10;;
73954;SDS011;62306;52.516;13.290;2023-05-14T09:24:40;4.80;;;3.38;;
73954;SDS011;62306;52.516;13.290;2023-05-14T09:27:08;8.43;;;3.42;;
73954;SDS011;62306;52.516;13.290;2023-05-14T09:29:35;5.05;;;3.28;;
73954;SDS011;62306;52.516;13.290;2023-05-14T09:32:04;7.25;;;3.60;;
73954;SDS011;62306;52.516;13.290;2023-05-14T09:34:32;5.03;;;3.30;;
73954;SDS011;62306;52.516;13.290;2023-05-14T09:37:02;12.40;;;3.78;;
73954;SDS011;62306;52.516;13.290;2023-05-14T09:39:31;5.97;;;3.45;;
73954;SDS011;62306;52.516;13.290;2023-05-14T09:41:59;6.78;;;3.40;;
73954;SDS011;62306;52.516;13.290;2023-05-14T09:44:25;9.25;;;3.50;;
73954;SDS011;62306;52.516;13.290;2023-05-14T09:46:53;4.10;;;3.28;;
73954;SDS011;62306;52.516;13.290;2023-05-14T09:49:22;8.32;;;4.22;;
73954;SDS011;62306;52.516;13.290;2023-05-14T09:51:49;9.55;;;3.85;;
73954;SDS011;62306;52.516;13.290;2023-05-14T09:54:16;4.82;;;3.42;;
73954;SDS011;62306;52.516;13.290;2023-05-14T09:56:43;5.57;;;3.40;;
73954;SDS011;62306;52.516;13.290;2023-05-14T09:59:10;8.48;;;4.55;;
73954;SDS011;62306;52.516;13.290;2023-05-14T10:01:37;3.85;;;3.15;;
73954;SDS011;62306;52.516;13.290;2023-05-14T10:04:05;10.88;;;3.55;;
73954;SDS011;62306;52.516;13.290;2023-05-14T10:06:36;5.85;;;4.20;;
73954;SDS011;62306;52.516;13.290;2023-05-14T10:09:07;5.80;;;4.13;;
73954;SDS011;62306;52.516;13.290;2023-05-14T10:11:37;7.25;;;4.32;;
73954;SDS011;62306;52.516;13.290;2023-05-14T10:14:10;4.20;;;3.42;;
73954;SDS011;62306;52.516;13.290;2023-05-14T10:16:42;7.07;;;3.45;;
73954;SDS011;62306;52.516;13.290;2023-05-14T10:19:13;6.47;;;3.45;;
73954;SDS011;62306;52.516;13.290;2023-05-14T10:21:43;6.80;;;3.60;;
73954;SDS011;62306;52.516;13.290;2023-05-14T10:24:13;4.95;;;3.60;;
73954;SDS011;62306;52.516;13.290;2023-05-14T10:26:40;7.38;;;3.85;;
73954;SDS011;62306;52.516;13.290;2023-05-14T10:29:08;6.20;;;3.72;;
73954;SDS011;62306;52.516;13.290;2023-05-14T10:31:45;9.65;;;4.20;;
73954;SDS011;62306;52.516;13.290;2023-05-14T10:34:32;6.20;;;3.72;;
73954;SDS011;62306;52.516;13.290;2023-05-14T10:37:04;7.40;;;3.55;;
73954;SDS011;62306;52.516;13.290;2023-05-14T10:39:39;5.15;;;3.50;;
73954;SDS011;62306;52.516;13.290;2023-05-14T10:42:10;10.75;;;4.05;;
73954;SDS011;62306;52.516;13.290;2023-05-14T10:44:41;13.02;;;4.40;;
73954;SDS011;62306;52.516;13.290;2023-05-14T10:47:14;4.53;;;3.53;;
73954;SDS011;62306;52.516;13.290;2023-05-14T10:49:42;7.45;;;4.32;;
73954;SDS011;62306;52.516;13.290;2023-05-14T10:52:14;11.95;;;4.07;;
73954;SDS011;62306;52.516;13.290;2023-05-14T10:54:50;12.07;;;3.80;;
73954;SDS011;62306;52.516;13.290;2023-05-14T10:57:19;12.80;;;3.92;;
73954;SDS011;62306;52.516;13.290;2023-05-14T10:59:48;9.07;;;3.92;;
73954;SDS011;62306;52.516;13.290;2023-05-14T11:02:21;6.75;;;4.63;;
73954;SDS011;62306;52.516;13.290;2023-05-14T11:04:54;11.07;;;4.65;;
73954;SDS011;62306;52.516;13.290;2023-05-14T11:07:26;5.43;;;4.18;;
73954;SDS011;62306;52.516;13.290;2023-05-14T11:09:58;7.28;;;3.80;;
73954;SDS011;62306;52.516;13.290;2023-05-14T11:12:30;7.22;;;4.18;;
73954;SDS011;62306;52.516;13.290;2023-05-14T11:14:58;7.80;;;4.00;;
73954;SDS011;62306;52.516;13.290;2023-05-14T11:17:28;12.35;;;5.80;;
73954;SDS011;62306;52.516;13.290;2023-05-14T11:19:56;9.00;;;4.70;;
73954;SDS011;62306;52.516;13.290;2023-05-14T11:22:26;5.32;;;3.78;;
73954;SDS011;62306;52.516;13.290;2023-05-14T11:24:53;12.85;;;3.45;;
73954;SDS011;62306;52.516;13.290;2023-05-14T11:27:23;8.73;;;3.83;;
73954;SDS011;62306;52.516;13.290;2023-05-14T11:29:51;6.35;;;4.07;;
73954;SDS011;62306;52.516;13.290;2023-05-14T11:32:20;9.50;;;3.65;;
73954;SDS011;62306;52.516;13.290;2023-05-14T11:34:53;10.77;;;3.42;;
73954;SDS011;62306;52.516;13.290;2023-05-14T11:37:21;6.30;;;3.65;;
73954;SDS011;62306;52.516;13.290;2023-05-14T11:39:52;6.10;;;4.47;;
73954;SDS011;62306;52.516;13.290;2023-05-14T11:42:20;10.00;;;4.20;;
73954;SDS011;62306;52.516;13.290;2023-05-14T11:44:50;7.95;;;4.28;;
73954;SDS011;62306;52.516;13.290;2023-05-14T11:47:21;9.88;;;4.35;;
73954;SDS011;62306;52.516;13.290;2023-05-14T11:49:48;6.50;;;4.93;;
73954;SDS011;62306;52.516;13.290;2023-05-14T11:52:16;10.60;;;5.68;;
73954;SDS011;62306;52.516;13.290;2023-05-14T11:54:46;9.85;;;4.47;;
73954;SDS011;62306;52.516;13.290;2023-05-14T11:57:16;7.13;;;4.15;;
73954;SDS011;62306;52.516;13.290;2023-05-14T11:59:45;7.43;;;4.65;;
73954;SDS011;62306;52.516;13.290;2023-05-14T12:02:13;5.75;;;4.30;;
73954;SDS011;62306;52.516;13.290;2023-05-14T12:04:42;14.73;;;7.38;;
73954;SDS011;62306;52.516;13.290;2023-05-14T12:07:10;7.80;;;4.20;;
73954;SDS011;62306;52.516;13.290;2023-05-14T12:09:39;6.70;;;3.90;;
73954;SDS011;62306;52.516;13.290;2023-05-14T12:12:13;10.18;;;4.85;;
73954;SDS011;62306;52.516;13.290;2023-05-14T12:14:42;10.65;;;7.57;;
73954;SDS011;62306;52.516;13.290;2023-05-14T12:17:13;11.85;;;5.88;;
73954;SDS011;62306;52.516;13.290;2023-05-14T12:19:41;9.60;;;4.78;;
73954;SDS011;62306;52.516;13.290;2023-05-14T12:22:09;10.32;;;6.38;;
73954;SDS011;62306;52.516;13.290;2023-05-14T12:24:36;18.77;;;9.80;;
73954;SDS011;62306;52.516;13.290;2023-05-14T12:27:06;10.27;;;6.30;;
73954;SDS011;62306;52.516;13.290;2023-05-14T12:29:34;11.55;;;6.57;;
73954;SDS011;62306;52.516;13.290;2023-05-14T12:32:07;11.02;;;6.35;;
73954;SDS011;62306;52.516;13.290;2023-05-14T12:34:35;10.95;;;5.05;;
73954;SDS011;62306;52.516;13.290;2023-05-14T12:37:02;11.10;;;5.90;;
73954;SDS011;62306;52.516;13.290;2023-05-14T12:39:31;15.38;;;5.40;;
73954;SDS011;62306;52.516;13.290;2023-05-14T12:41:58;5.72;;;4.53;;
73954;SDS011;62306;52.516;13.290;2023-05-14T12:44:25;11.35;;;4.75;;
73954;SDS011;62306;52.516;13.290;2023-05-14T12:46:52;7.68;;;4.85;;
73954;SDS011;62306;52.516;13.290;2023-05-14T12:49:21;15.82;;;4.40;;
73954;SDS011;62306;52.516;13.290;2023-05-14T12:51:47;8.32;;;5.85;;
73954;SDS011;62306;52.516;13.290;2023-05-14T12:54:15;6.90;;;3.90;;
73954;SDS011;62306;52.516;13.290;2023-05-14T12:56:45;7.07;;;4.10;;
73954;SDS011;62306;52.516;13.290;2023-05-14T12:59:14;6.70;;;5.13;;
73954;SDS011;62306;52.516;13.290;2023-05-14T13:01:47;14.95;;;7.05;;
73954;SDS011;62306;52.516;13.290;2023-05-14T13:04:17;6.95;;;4.38;;
73954;SDS011;62306;52.516;13.290;2023-05-14T13:06:46;11.13;;;3.80;;
73954;SDS011;62306;52.516;13.290;2023-05-14T13:09:14;8.32;;;4.00;;
73954;SDS011;62306;52.516;13.290;2023-05-14T13:11:41;8.35;;;3.80;;
73954;SDS011;62306;52.516;13.290;2023-05-14T13:14:09;7.35;;;3.63;;
73954;SDS011;62306;52.516;13.290;2023-05-14T13:16:38;7.53;;;4.10;;
73954;SDS011;62306;52.516;13.290;2023-05-14T13:19:06;7.45;;;3.90;;
73954;SDS011;62306;52.516;13.290;2023-05-14T13:21:40;6.55;;;3.78;;
73954;SDS011;62306;52.516;13.290;2023-05-14T13:24:09;6.35;;;3.75;;
73954;SDS011;62306;52.516;13.290;2023-05-14T13:26:37;7.65;;;3.92;;
73954;SDS011;62306;52.516;13.290;2023-05-14T13:29:04;14.30;;;4.30;;
73954;SDS011;62306;52.516;13.290;2023-05-14T13:31:35;8.05;;;3.63;;
73954;SDS011;62306;52.516;13.290;2023-05-14T13:34:02;7.53;;;3.58;;
73954;SDS011;62306;52.516;13.290;2023-05-14T13:36:34;8.10;;;4.50;;
73954;SDS011;62306;52.516;13.290;2023-05-14T13:39:04;8.45;;;4.90;;
73954;SDS011;62306;52.516;13.290;2023-05-14T13:41:42;8.63;;;4.53;;
73954;SDS011;62306;52.516;13.290;2023-05-14T13:44:09;7.38;;;4.55;;
73954;SDS011;62306;52.516;13.290;2023-05-14T13:46:37;9.73;;;4.03;;
73954;SDS011;62306;52.516;13.290;2023-05-14T13:49:05;8.52;;;4.05;;
73954;SDS011;62306;52.516;13.290;2023-05-14T13:51:32;9.73;;;4.00;;
73954;SDS011;62306;52.516;13.290;2023-05-14T13:54:00;7.43;;;3.78;;
73954;SDS011;62306;52.516;13.290;2023-05-14T13:56:31;6.45;;;4.30;;
73954;SDS011;62306;52.516;13.290;2023-05-14T13:59:03;6.00;;;3.88;;
73954;SDS011;62306;52.516;13.290;2023-05-14T14:01:33;9.45;;;4.85;;
73954;SDS011;62306;52.516;13.290;2023-05-14T14:04:01;5.97;;;4.03;;
73954;SDS011;62306;52.516;13.290;2023-05-14T14:06:29;15.05;;;9.10;;
73954;SDS011;62306;52.516;13.290;2023-05-14T14:09:00;6.25;;;3.92;;
73954;SDS011;62306;52.516;13.290;2023-05-14T14:11:31;10.55;;;3.67;;
73954;SDS011;62306;52.516;13.290;2023-05-14T14:14:07;8.95;;;4.22;;
73954;SDS011;62306;52.516;13.290;2023-05-14T14:16:35;7.18;;;3.75;;
73954;SDS011;62306;52.516;13.290;2023-05-14T14:19:15;6.45;;;4.28;;
73954;SDS011;62306;52.516;13.290;2023-05-14T14:21:43;7.07;;;3.80;;
73954;SDS011;62306;52.516;13.290;2023-05-14T14:24:18;8.30;;;4.03;;
73954;SDS011;62306;52.516;13.290;2023-05-14T14:27:10;12.65;;;5.00;;
73954;SDS011;62306;52.516;13.290;2023-05-14T14:29:57;11.30;;;5.70;;
73954;SDS011;62306;52.516;13.290;2023-05-14T14:32:33;5.63;;;3.95;;